• Join FlightAware (Why Join?)
  • Login
  • US Flag 
04:16AM EDT


 

Airport Tracker/Info


-or-


 

Live Flight TrackerFlight Track Log ✈ SVA2370 ✈ 03-Jul-2013 ✈ OEMA / MED - LTAF / ADA

Flight Track Log - Related Links

Times and Time Zones

All times are in EDT time to prevent confusion due to time zone crossing. See the SVA2370 flight status page for this flight to view local times or setup timezone preferences in your user account.

Time Position Orientation Groundspeed Altitude Reporting Facility
EDT Latitude Longitude Course Direction KTS MPH feet Rate Location/Type
11:15AM 25.2014 39.5009 344° North  Level Estimated
11:16AM 25.2940 39.4715 344° North  Level Estimated
11:17AM 25.3865 39.4422 344° North  Level Estimated
11:18AM 25.4790 39.4127 344° North  Level Estimated
11:19AM 25.5716 39.3833 344° North  Level Estimated
11:20AM 25.6641 39.3537 344° North  Level Estimated
11:21AM 25.7566 39.3242 344° North  Level Estimated
11:22AM 25.8491 39.2945 344° North  Level Estimated
11:23AM 25.9416 39.2649 344° North  Level Estimated
11:24AM 26.0341 39.2352 344° North  Level Estimated
11:25AM 26.1266 39.2054 344° North  Level Estimated
11:26AM 26.2191 39.1756 344° North  Level Estimated
11:27AM 26.3116 39.1458 344° North  Level Estimated
11:28AM 26.4041 39.1159 344° North  Level Estimated
11:29AM 26.4965 39.0859 344° North  Level Estimated
11:30AM 26.5890 39.0559 344° North  Level Estimated
11:31AM 26.6815 39.0259 344° North  Level Estimated
11:32AM 26.7739 38.9958 344° North  Level Estimated
11:33AM 26.8664 38.9656 344° North  Level Estimated
11:34AM 26.9588 38.9355 344° North  Level Estimated
11:35AM 27.0512 38.9052 344° North  Level Estimated
11:36AM 27.1436 38.8749 344° North  Level Estimated
11:37AM 27.2361 38.8446 344° North  Level Estimated
11:38AM 27.3285 38.8142 344° North  Level Estimated
11:39AM 27.4209 38.7838 344° North  Level Estimated
11:40AM 27.5133 38.7533 344° North  Level Estimated
11:41AM 27.6057 38.7227 344° North  Level Estimated
11:42AM 27.6980 38.6921 344° North  Level Estimated
11:43AM 27.7904 38.6615 344° North  Level Estimated
11:44AM 27.8828 38.6308 344° North  Level Estimated
11:45AM 27.9751 38.6000 344° North  Level Estimated
11:46AM 28.0675 38.5692 344° North  Level Estimated
11:47AM 28.1599 38.5384 344° North  Level Estimated
11:48AM 28.2522 38.5075 344° North  Level Estimated
11:49AM 28.3445 38.4765 344° North  Level Estimated
11:50AM 28.4369 38.4455 344° North  Level Estimated
11:51AM 28.5292 38.4144 344° North  Level Estimated
11:52AM 28.6215 38.3833 344° North  Level Estimated
11:53AM 28.7138 38.3521 343° North  Level Estimated
11:54AM 28.8061 38.3209 343° North  Level Estimated
11:55AM 28.8984 38.2896 343° North  Level Estimated
11:56AM 28.9907 38.2582 343° North  Level Estimated
11:57AM 29.0830 38.2268 343° North  Level Estimated
11:58AM 29.1752 38.1954 343° North  Level Estimated
11:59AM 29.2675 38.1638 343° North  Level Estimated
12:00PM 29.3598 38.1323 343° North  Level Estimated
12:01PM 29.4520 38.1007 343° North  Level Estimated
12:02PM 29.5443 38.0690 343° North  Level Estimated
12:03PM 29.6365 38.0372 343° North  Level Estimated
12:04PM 29.7287 38.0054 343° North  Level Estimated
12:05PM 29.8210 37.9736 343° North  Level Estimated
12:06PM 29.9132 37.9416 343° North  Level Estimated
12:07PM 30.0054 37.9097 343° North  Level Estimated
12:08PM 30.0976 37.8776 343° North  Level Estimated
12:09PM 30.1898 37.8455 343° North  Level Estimated
12:10PM 30.2819 37.8134 343° North  Level Estimated
12:11PM 30.3741 37.7811 343° North  Level Estimated
12:12PM 30.4663 37.7489 343° North  Level Estimated
12:13PM 30.5584 37.7165 343° North  Level Estimated
12:14PM 30.6506 37.6841 343° North  Level Estimated
12:15PM 30.7427 37.6517 343° North  Level Estimated
12:16PM 30.8349 37.6191 343° North  Level Estimated
12:17PM 30.9270 37.5865 343° North  Level Estimated
12:18PM 31.0191 37.5539 343° North  Level Estimated
12:19PM 31.1112 37.5212 343° North  Level Estimated
12:20PM 31.2033 37.4884 343° North  Level Estimated
12:21PM 31.2954 37.4556 343° North  Level Estimated
12:22PM 31.3875 37.4226 343° North  Level Estimated
12:23PM 31.4796 37.3897 343° North  Level Estimated
12:24PM 31.5716 37.3566 343° North  Level Estimated
12:25PM 31.6637 37.3235 343° North  Level Estimated
12:26PM 31.7558 37.2904 343° North  Level Estimated
12:27PM 31.8478 37.2571 343° North  Level Estimated
12:28PM 31.9398 37.2238 343° North  Level Estimated
12:29PM 32.0318 37.1905 343° North  Level Estimated
12:30PM 32.1239 37.1570 343° North  Level Estimated
12:31PM 32.2159 37.1235 343° North  Level Estimated
12:32PM 32.3079 37.0900 343° North  Level Estimated
12:33PM 32.3999 37.0563 343° North  Level Estimated
12:34PM 32.4918 37.0226 343° North  Level Estimated
12:35PM 32.5838 36.9888 343° North  Level Estimated
12:36PM 32.6758 36.9550 343° North  Level Estimated
12:37PM 32.7677 36.9211 343° North  Level Estimated
12:38PM 32.8597 36.8871 343° North  Level Estimated
12:39PM 32.9516 36.8530 343° North  Level Estimated
12:40PM 33.0435 36.8189 343° North  Level Estimated
12:41PM 33.1354 36.7847 343° North  Level Estimated
12:42PM 33.2273 36.7504 343° North  Level Estimated
12:43PM 33.3192 36.7161 343° North  Level Estimated
12:44PM 33.4111 36.6817 343° North  Level Estimated
12:45PM 33.5030 36.6472 343° North  Level Estimated
12:46PM 33.5949 36.6126 343° North  Level Estimated
12:47PM 33.6867 36.5780 343° North  Level Estimated
12:48PM 33.7786 36.5433 343° North  Level Estimated
12:49PM 33.8704 36.5085 343° North  Level Estimated
12:50PM 33.9623 36.4737 343° North  Level Estimated
12:51PM 34.0541 36.4387 343° North  Level Estimated
12:52PM 34.1459 36.4037 342° North  Level Estimated
12:53PM 34.2377 36.3686 342° North  Level Estimated
12:54PM 34.3295 36.3335 342° North  Level Estimated
12:55PM 34.4213 36.2982 342° North  Level Estimated
12:56PM 34.5130 36.2629 342° North  Level Estimated
12:57PM 34.6048 36.2275 342° North  Level Estimated
12:58PM 34.6965 36.1921 342° North  Level Estimated
12:59PM 34.7883 36.1565 342° North  Level Estimated
01:00PM 34.8800 36.1209 342° North  Level Estimated
01:01PM 34.9717 36.0852 342° North  Level Estimated
01:02PM 35.0634 36.0494 342° North  Level Estimated
01:03PM 35.1551 36.0135 342° North  Level Estimated
01:04PM 35.2468 35.9776 342° North  Level Estimated
01:05PM 35.3385 35.9415 342° North  Level Estimated
01:06PM 35.4302 35.9054 342° North  Level Estimated
01:06PM 36.3790 30.8140 342° North 496 571 38,100  Level FlightAware
01:07PM 36.4880 30.8100 358° North 496 571 38,100  Level FlightAware
01:07PM 36.6000 30.8060 358° North 498 573 38,100  Level FlightAware
01:08PM 36.6960 30.8020 358° North 498 573 38,100  Level FlightAware
01:09PM 36.7930 30.8020 360° North 503 579 38,100  Level FlightAware
01:09PM 36.8710 30.8500 26° Northeast 539 620 38,100  Level FlightAware
01:10PM 36.9010 30.8980 52° Northeast 550 633 38,100  Level FlightAware
01:10PM 36.9220 31.0340 79° East 556 640 38,100  Level FlightAware
01:11PM 36.9120 31.1750 95° East 556 640 38,100  Level FlightAware
01:12PM 36.9010 31.3380 95° East 556 640 38,100  Level FlightAware
01:13PM 36.8980 31.4800 91° East 559 643 38,100  Level FlightAware
01:13PM 36.9020 31.6150 88° East 559 643 38,100  Level FlightAware
01:14PM 36.9040 31.7230 89° East 559 643 38,100  Level FlightAware
01:14PM 36.9040 31.7880 90° East 559 643 38,100  Level FlightAware
01:15PM 36.9020 31.9280 91° East 558 642 38,100  Level FlightAware
01:16PM 36.8990 32.0560 92° East 558 642 38,100  Level FlightAware
01:17PM 36.8970 32.1930 91° East 558 642 38,100  Level FlightAware
01:17PM 36.8950 32.2890 91° East 558 642 38,100 -300 Level FlightAware
01:18PM 36.8880 32.4850 92° East 555 639 37,700 -1,200 Descending FlightAware
01:19PM 36.8840 32.5960 93° East 551 634 36,400 -1,080 Descending FlightAware
01:19PM 36.8810 32.7230 92° East 551 634 36,100 -240 Descending FlightAware
01:20PM 36.8780 32.8180 92° East 551 634 36,100  Level FlightAware
01:21PM 36.8750 32.9510 92° East 551 634 36,100  Level FlightAware
01:21PM 36.8720 33.0480 92° East 551 634 36,100  Level FlightAware
01:22PM 36.8680 33.1810 92° East 551 634 36,100  Level FlightAware
01:23PM 36.8650 33.2780 92° East 551 634 36,100  Level FlightAware
01:24PM 36.8620 33.4080 92° East 551 634 36,100  Level FlightAware
01:24PM 36.8590 33.5080 92° East 551 634 36,100 -7,080 Level FlightAware
01:25PM 36.8840 33.7230 82° East 25,900 -10,860 Descending FlightAware
01:25PM 36.8890 33.8430 87° East 468 539 23,800 -2,940 Descending FlightAware
01:26PM 36.8940 33.9340 86° East 453 521 22,000 -1,440 Descending FlightAware
01:27PM 36.8970 34.0210 88° East 453 521 22,000  Level FlightAware
01:27PM 36.9010 34.1030 86° East 453 521 22,000 -3,840 Level FlightAware
01:28PM 36.9070 34.2200 86° East 414 476 17,200 -4,500 Descending FlightAware
01:29PM 36.9110 34.3180 87° East 399 459 16,000 -1,680 Descending FlightAware
01:29PM 36.9140 34.3970 87° East 387 445 15,100 -1,080 Descending FlightAware
01:30PM 36.9130 34.5240 91° East 344 396 14,400 -1,260 Descending FlightAware
01:31PM 36.9010 34.5980 101° East 337 388 13,000 -2,160 Descending FlightAware
01:31PM 36.8920 34.6580 101° East 328 377 11,900 -2,280 Descending FlightAware
01:32PM 36.8790 34.7340 102° East 310 357 10,400 -1,740 Descending FlightAware
01:33PM 36.8720 34.7810 101° East 278 320 9,900 -1,500 Descending FlightAware
01:33PM 36.8680 34.8060 101° East 273 314 9,300 -2,700 Descending FlightAware
01:33PM 36.8570 34.8680 102° East 267 307 7,400 -2,340 Descending FlightAware
01:34PM 36.8440 34.9330 104° East 244 281 6,000 -1,980 Descending FlightAware
01:35PM 36.8410 34.9540 100° East 239 275 5,400 -1,920 Descending FlightAware
01:35PM 36.8350 34.9950 100° East 237 273 4,600 -1,440 Descending FlightAware
01:35PM 36.8320 35.0160 100° East 237 273 4,300 -1,200 Descending FlightAware
01:35PM 36.8330 35.0290 85° East 232 267 4,100 -720 Descending FlightAware
01:36PM 36.8420 35.0450 55° Northeast 226 260 4,000 -720 Descending FlightAware
01:36PM 36.8610 35.0770 53° Northeast 222 255 3,600 -780 Descending FlightAware
01:37PM 36.8760 35.1020 53° Northeast 217 250 3,300 -780 Descending FlightAware
01:37PM 36.8950 35.1330 53° Northeast 201 231 2,900 -900 Descending FlightAware
01:38PM 36.9110 35.1600 53° Northeast 195 224 2,400 -1,080 Descending FlightAware
01:38PM 36.9250 35.1830 53° Northeast 180 207 1,900 -960 Descending FlightAware
01:38PM 36.9360 35.2030 55° Northeast 167 192 1,600 -840 Descending FlightAware
01:39PM 36.9520 35.2300 53° Northeast 165 190 1,100 -960 Descending FlightAware
01:39PM 36.9570 35.2380 52° Northeast 164 189 900 -960 Descending FlightAware
01:40PM 36.9730 35.2650 53° Northeast 162 186 400 -900 Descending FlightAware
01:40PM 36.9830 35.2810 52° Northeast 110 127 -960 Descending FlightAware
01:41PM 36.9870 35.2890 58° Northeast 24 28  Level FlightAware
01:41PM 36.9890 35.2920 50° Northeast 16 18  Level FlightAware
01:42PM 36.9890 35.2940 90° East 12 14  Level FlightAware
01:42PM 36.9870 35.2950 158° South 13 15  Level FlightAware
01:42PM 36.9860 35.2950 180° South 10 12  Level FlightAware
01:43PM 36.9850 35.2950 180° South 10 12  Level FlightAware
01:43PM 36.9840 35.2940 219° Southwest 4 5  Level FlightAware
01:46PM 36.9822 35.2804 260° West  Level Estimated